fecha-hora | temperatura | viento dirección-velocidad-rachas | humedad | presión

  • 03-04-2020 22:00:00 | 9.00°C | Sudeste-18.00 km/h - 32.00 km/h | 82.00% | 1000.10 hPa
  • 03-04-2020 21:00:00 | 9.80°C | Sudeste-21.00 km/h - 33.00 km/h | 75.00% | 1000.00 hPa
  • 03-04-2020 20:00:00 | 11.60°C | Este-24.00 km/h - 33.00 km/h | 67.00% | 1000.40 hPa
  • 03-04-2020 19:00:00 | 12.70°C | Este-22.00 km/h - 37.00 km/h | 62.00% | 1000.40 hPa
  • 03-04-2020 18:00:00 | 13.30°C | Este-24.00 km/h - 39.00 km/h | 57.00% | 1000.60 hPa
  • 03-04-2020 17:00:00 | 13.90°C | Este-23.00 km/h - 39.00 km/h | 56.00% | 1001.00 hPa
  • 03-04-2020 16:00:00 | 13.30°C | Este-22.00 km/h - 39.00 km/h | 59.00% | 1001.60 hPa
  • 03-04-2020 15:00:00 | 13.40°C | Este-23.00 km/h - 37.00 km/h | 59.00% | 1002.00 hPa
  • 03-04-2020 14:00:00 | 13.60°C | Este-19.00 km/h - 39.00 km/h | 61.00% | 1002.40 hPa
  • 03-04-2020 13:00:00 | 13.00°C | Este-19.00 km/h - 39.00 km/h | 62.00% | 1003.50 hPa
  • 03-04-2020 12:00:00 | 11.60°C | Este-17.00 km/h - 30.00 km/h | 63.00% | 1003.90 hPa
  • 03-04-2020 11:00:00 | 11.30°C | Sudeste-24.00 km/h - 33.00 km/h | 64.00% | 1003.80 hPa
  • 03-04-2020 10:00:00 | 10.10°C | Sudeste-16.00 km/h - 22.00 km/h | 70.00% | 1003.70 hPa
  • 03-04-2020 09:00:00 | 8.20°C | Sudeste-12.00 km/h - 17.00 km/h | 78.00% | 1003.90 hPa
  • 03-04-2020 08:00:00 | 6.10°C | Sudeste-13.00 km/h - 17.00 km/h | 87.00% | 1003.40 hPa
  • 03-04-2020 07:00:00 | 7.20°C | Sudeste-12.00 km/h - 13.00 km/h | 82.00% | 1003.20 hPa
  • 03-04-2020 06:00:00 | 6.30°C | Sudeste-11.00 km/h - 0.00 km/h | 88.00% | 1003.50 hPa
  • 03-04-2020 05:00:00 | 6.40°C | Sudeste-6.00 km/h - 13.00 km/h | 82.00% | 1003.80 hPa
  • 03-04-2020 04:00:00 | 7.80°C | Este-9.00 km/h - 15.00 km/h | 72.00% | 1004.10 hPa
  • 03-04-2020 03:00:00 | 8.40°C | Este-9.00 km/h - 15.00 km/h | 71.00% | 1004.70 hPa
  • 03-04-2020 02:00:00 | 8.60°C | Este-9.00 km/h - 18.00 km/h | 70.00% | 1005.00 hPa
  • 03-04-2020 01:00:00 | 9.00°C | Este-8.00 km/h - 22.00 km/h | 69.00% | 1005.20 hPa
  • 03-04-2020 00:00:00 | 9.20°C | Este-10.00 km/h - 21.00 km/h | 73.00% | 1005.50 hPa
  • 02-04-2020 23:00:00 | 9.50°C | Este-8.00 km/h - 18.00 km/h | 75.00% | 1005.40 hPa
    • diseño web asturias Información sobre el estado de las mareas, altura de la marejada, temperatura del agua y otros datos de Gijón en Asturias.

      Surf Gijón